Weather at Bois Blanc Airport

Public forecast

Using degrees Fahrenheit for public forecast. Weather courtesy of forecast.io.

Closest aviation weather report (METAR) to Bois Blanc Airport

Report is more than 2 hours old.

Closest report is Cheboygan County Airport, 6.8 nm (12.6 km) S. Retrieved 2021/07/31 00:15 UTC (5 hours ago):

KSLH 310015Z AUTO 00000KT 10SM CLR 17/09 A3008 RMK AO2

Closest aviation forecast (TAF) to Bois Blanc Airport

Closest forecast is Pellston Regional Airport of Emmet County Airport, 17.0 nm (31.5 km) SW. Retrieved 2021-07-31 00:22 UTC (5 hours ago):

TAF KPLN 302320Z 3100/3124 VRB03KT P6SM SCT250 FM310600 23004KT P6SM SCT080 OVC150 FM311000 24007KT 6SM -SHRA SCT050 OVC100 FM311400 26008KT 6SM -SHRA BKN040 OVC080